sensor_id;sensor_type;location;lat;lon;timestamp;P1;durP1;ratioP1;P2;durP2;ratioP2
36573;SDS011;22578;42.668;23.232;2022-08-14T00:00:16;1.85;;;1.67;;
36573;SDS011;22578;42.668;23.232;2022-08-14T00:03:37;1.75;;;1.65;;
36573;SDS011;22578;42.668;23.232;2022-08-14T00:06:57;3.35;;;3.03;;
36573;SDS011;22578;42.668;23.232;2022-08-14T00:10:19;1.80;;;1.70;;
36573;SDS011;22578;42.668;23.232;2022-08-14T00:13:40;1.63;;;1.52;;
36573;SDS011;22578;42.668;23.232;2022-08-14T00:17:02;2.10;;;2.00;;
36573;SDS011;22578;42.668;23.232;2022-08-14T00:20:24;2.00;;;1.90;;
36573;SDS011;22578;42.668;23.232;2022-08-14T00:23:47;1.65;;;1.55;;
36573;SDS011;22578;42.668;23.232;2022-08-14T00:27:08;1.60;;;1.50;;
36573;SDS011;22578;42.668;23.232;2022-08-14T00:30:28;3.00;;;1.50;;
36573;SDS011;22578;42.668;23.232;2022-08-14T00:33:49;1.70;;;1.60;;
36573;SDS011;22578;42.668;23.232;2022-08-14T00:37:09;1.70;;;1.60;;
36573;SDS011;22578;42.668;23.232;2022-08-14T00:40:30;2.22;;;2.05;;
36573;SDS011;22578;42.668;23.232;2022-08-14T00:43:51;2.40;;;2.20;;
36573;SDS011;22578;42.668;23.232;2022-08-14T00:47:12;1.83;;;1.73;;
36573;SDS011;22578;42.668;23.232;2022-08-14T00:50:33;2.42;;;2.22;;
36573;SDS011;22578;42.668;23.232;2022-08-14T00:53:54;2.75;;;2.55;;
36573;SDS011;22578;42.668;23.232;2022-08-14T00:57:14;1.70;;;1.60;;
36573;SDS011;22578;42.668;23.232;2022-08-14T01:00:36;2.97;;;2.35;;
36573;SDS011;22578;42.668;23.232;2022-08-14T01:03:57;1.60;;;1.50;;
36573;SDS011;22578;42.668;23.232;2022-08-14T01:07:19;2.25;;;2.05;;
36573;SDS011;22578;42.668;23.232;2022-08-14T01:10:40;2.40;;;2.20;;
36573;SDS011;22578;42.668;23.232;2022-08-14T01:14:11;2.38;;;2.17;;
36573;SDS011;22578;42.668;23.232;2022-08-14T01:17:32;1.35;;;1.33;;
36573;SDS011;22578;42.668;23.232;2022-08-14T01:21:11;2.13;;;2.00;;
36573;SDS011;22578;42.668;23.232;2022-08-14T01:24:34;2.75;;;2.42;;
36573;SDS011;22578;42.668;23.232;2022-08-14T01:27:55;3.03;;;1.88;;
36573;SDS011;22578;42.668;23.232;2022-08-14T01:31:18;1.25;;;1.23;;
36573;SDS011;22578;42.668;23.232;2022-08-14T01:34:38;3.25;;;3.00;;
36573;SDS011;22578;42.668;23.232;2022-08-14T01:37:59;2.63;;;2.42;;
36573;SDS011;22578;42.668;23.232;2022-08-14T01:41:20;1.83;;;1.73;;
36573;SDS011;22578;42.668;23.232;2022-08-14T01:44:41;2.65;;;2.45;;
36573;SDS011;22578;42.668;23.232;2022-08-14T01:48:02;1.65;;;1.55;;
36573;SDS011;22578;42.668;23.232;2022-08-14T01:51:23;1.70;;;1.60;;
36573;SDS011;22578;42.668;23.232;2022-08-14T01:54:45;2.42;;;2.22;;
36573;SDS011;22578;42.668;23.232;2022-08-14T01:58:05;1.75;;;1.65;;
36573;SDS011;22578;42.668;23.232;2022-08-14T02:01:30;1.85;;;1.75;;
36573;SDS011;22578;42.668;23.232;2022-08-14T02:04:50;1.48;;;1.40;;
36573;SDS011;22578;42.668;23.232;2022-08-14T02:08:11;1.92;;;1.83;;
36573;SDS011;22578;42.668;23.232;2022-08-14T02:11:31;2.28;;;2.15;;
36573;SDS011;22578;42.668;23.232;2022-08-14T02:14:53;1.75;;;1.65;;
36573;SDS011;22578;42.668;23.232;2022-08-14T02:18:13;1.85;;;1.75;;
36573;SDS011;22578;42.668;23.232;2022-08-14T02:21:34;5.57;;;1.98;;
36573;SDS011;22578;42.668;23.232;2022-08-14T02:24:55;1.55;;;1.45;;
36573;SDS011;22578;42.668;23.232;2022-08-14T02:28:15;2.45;;;2.17;;
36573;SDS011;22578;42.668;23.232;2022-08-14T02:31:37;2.30;;;2.10;;
36573;SDS011;22578;42.668;23.232;2022-08-14T02:34:59;2.15;;;2.00;;
36573;SDS011;22578;42.668;23.232;2022-08-14T02:38:20;2.00;;;1.90;;
36573;SDS011;22578;42.668;23.232;2022-08-14T02:41:41;1.88;;;1.77;;
36573;SDS011;22578;42.668;23.232;2022-08-14T02:45:04;1.70;;;1.60;;
36573;SDS011;22578;42.668;23.232;2022-08-14T02:48:26;3.08;;;2.88;;
36573;SDS011;22578;42.668;23.232;2022-08-14T02:51:52;3.03;;;2.73;;
36573;SDS011;22578;42.668;23.232;2022-08-14T02:55:16;2.08;;;1.88;;
36573;SDS011;22578;42.668;23.232;2022-08-14T02:58:38;2.55;;;2.35;;
36573;SDS011;22578;42.668;23.232;2022-08-14T03:02:00;2.00;;;1.90;;
36573;SDS011;22578;42.668;23.232;2022-08-14T03:05:21;3.08;;;2.67;;
36573;SDS011;22578;42.668;23.232;2022-08-14T03:08:42;2.40;;;2.20;;
36573;SDS011;22578;42.668;23.232;2022-08-14T03:12:03;1.58;;;1.48;;
36573;SDS011;22578;42.668;23.232;2022-08-14T03:15:24;2.20;;;2.05;;
36573;SDS011;22578;42.668;23.232;2022-08-14T03:18:45;3.17;;;2.88;;
36573;SDS011;22578;42.668;23.232;2022-08-14T03:22:07;1.92;;;1.83;;
36573;SDS011;22578;42.668;23.232;2022-08-14T03:25:28;2.40;;;2.20;;
36573;SDS011;22578;42.668;23.232;2022-08-14T03:28:52;3.30;;;3.00;;
36573;SDS011;22578;42.668;23.232;2022-08-14T03:32:13;2.63;;;2.42;;
36573;SDS011;22578;42.668;23.232;2022-08-14T03:35:34;2.55;;;2.35;;
36573;SDS011;22578;42.668;23.232;2022-08-14T03:38:54;2.95;;;2.67;;
36573;SDS011;22578;42.668;23.232;2022-08-14T03:42:15;2.28;;;2.08;;
36573;SDS011;22578;42.668;23.232;2022-08-14T03:45:36;1.98;;;1.85;;
36573;SDS011;22578;42.668;23.232;2022-08-14T03:48:58;1.55;;;1.48;;
36573;SDS011;22578;42.668;23.232;2022-08-14T03:52:20;2.00;;;1.90;;
36573;SDS011;22578;42.668;23.232;2022-08-14T03:55:40;2.15;;;1.98;;
36573;SDS011;22578;42.668;23.232;2022-08-14T03:59:03;1.98;;;1.88;;
36573;SDS011;22578;42.668;23.232;2022-08-14T04:02:30;2.40;;;2.20;;
36573;SDS011;22578;42.668;23.232;2022-08-14T04:05:51;4.50;;;2.22;;
36573;SDS011;22578;42.668;23.232;2022-08-14T04:09:12;2.20;;;2.03;;
36573;SDS011;22578;42.668;23.232;2022-08-14T04:12:32;1.98;;;1.67;;
36573;SDS011;22578;42.668;23.232;2022-08-14T04:15:53;2.45;;;1.92;;
36573;SDS011;22578;42.668;23.232;2022-08-14T04:19:14;2.33;;;2.20;;
36573;SDS011;22578;42.668;23.232;2022-08-14T04:22:38;1.42;;;1.35;;
36573;SDS011;22578;42.668;23.232;2022-08-14T04:26:03;2.65;;;2.45;;
36573;SDS011;22578;42.668;23.232;2022-08-14T04:29:25;1.42;;;1.35;;
36573;SDS011;22578;42.668;23.232;2022-08-14T04:32:45;1.20;;;1.20;;
36573;SDS011;22578;42.668;23.232;2022-08-14T04:36:06;2.00;;;1.90;;
36573;SDS011;22578;42.668;23.232;2022-08-14T04:39:27;2.58;;;2.38;;
36573;SDS011;22578;42.668;23.232;2022-08-14T04:43:06;2.08;;;1.98;;
36573;SDS011;22578;42.668;23.232;2022-08-14T04:46:45;2.28;;;2.08;;
36573;SDS011;22578;42.668;23.232;2022-08-14T04:50:26;2.03;;;1.88;;
36573;SDS011;22578;42.668;23.232;2022-08-14T04:53:47;1.33;;;1.27;;
36573;SDS011;22578;42.668;23.232;2022-08-14T04:57:08;4.20;;;2.53;;
36573;SDS011;22578;42.668;23.232;2022-08-14T05:00:33;2.28;;;2.08;;
36573;SDS011;22578;42.668;23.232;2022-08-14T05:03:54;2.65;;;2.42;;
36573;SDS011;22578;42.668;23.232;2022-08-14T05:07:14;1.52;;;1.42;;
36573;SDS011;22578;42.668;23.232;2022-08-14T05:10:35;2.00;;;1.90;;
36573;SDS011;22578;42.668;23.232;2022-08-14T05:13:56;2.00;;;1.85;;
36573;SDS011;22578;42.668;23.232;2022-08-14T05:17:16;1.55;;;1.45;;
36573;SDS011;22578;42.668;23.232;2022-08-14T05:20:38;1.23;;;1.23;;
36573;SDS011;22578;42.668;23.232;2022-08-14T05:23:59;1.58;;;1.48;;
36573;SDS011;22578;42.668;23.232;2022-08-14T05:27:21;1.65;;;1.55;;
36573;SDS011;22578;42.668;23.232;2022-08-14T05:30:41;1.65;;;1.55;;
36573;SDS011;22578;42.668;23.232;2022-08-14T05:34:02;1.60;;;1.50;;
36573;SDS011;22578;42.668;23.232;2022-08-14T05:37:23;1.58;;;1.48;;
36573;SDS011;22578;42.668;23.232;2022-08-14T05:40:43;1.55;;;1.45;;
36573;SDS011;22578;42.668;23.232;2022-08-14T05:44:05;1.55;;;1.45;;
36573;SDS011;22578;42.668;23.232;2022-08-14T05:47:26;1.67;;;1.58;;
36573;SDS011;22578;42.668;23.232;2022-08-14T05:50:46;1.48;;;1.38;;
36573;SDS011;22578;42.668;23.232;2022-08-14T05:54:07;1.90;;;1.75;;
36573;SDS011;22578;42.668;23.232;2022-08-14T05:57:28;2.70;;;2.50;;
36573;SDS011;22578;42.668;23.232;2022-08-14T06:00:48;1.77;;;1.67;;
36573;SDS011;22578;42.668;23.232;2022-08-14T06:04:09;1.98;;;1.88;;
36573;SDS011;22578;42.668;23.232;2022-08-14T06:07:29;1.20;;;1.20;;
36573;SDS011;22578;42.668;23.232;2022-08-14T06:10:50;2.50;;;2.30;;
36573;SDS011;22578;42.668;23.232;2022-08-14T06:14:12;1.98;;;1.83;;
36573;SDS011;22578;42.668;23.232;2022-08-14T06:17:42;2.30;;;2.10;;
36573;SDS011;22578;42.668;23.232;2022-08-14T06:21:07;1.00;;;1.00;;
36573;SDS011;22578;42.668;23.232;2022-08-14T06:24:27;1.60;;;1.50;;
36573;SDS011;22578;42.668;23.232;2022-08-14T06:27:48;1.20;;;1.20;;
36573;SDS011;22578;42.668;23.232;2022-08-14T06:31:08;1.27;;;1.27;;
36573;SDS011;22578;42.668;23.232;2022-08-14T06:34:30;2.03;;;1.92;;
36573;SDS011;22578;42.668;23.232;2022-08-14T06:41:11;2.05;;;1.95;;
36573;SDS011;22578;42.668;23.232;2022-08-14T06:44:32;1.48;;;1.38;;
36573;SDS011;22578;42.668;23.232;2022-08-14T06:47:52;3.63;;;2.20;;
36573;SDS011;22578;42.668;23.232;2022-08-14T06:51:13;1.30;;;1.27;;
36573;SDS011;22578;42.668;23.232;2022-08-14T06:54:34;1.50;;;1.40;;
36573;SDS011;22578;42.668;23.232;2022-08-14T06:57:55;1.30;;;1.23;;
36573;SDS011;22578;42.668;23.232;2022-08-14T07:01:15;1.00;;;1.00;;
36573;SDS011;22578;42.668;23.232;2022-08-14T07:04:55;0.90;;;0.90;;
36573;SDS011;22578;42.668;23.232;2022-08-14T07:08:34;1.05;;;1.05;;
36573;SDS011;22578;42.668;23.232;2022-08-14T07:11:56;1.10;;;1.10;;
36573;SDS011;22578;42.668;23.232;2022-08-14T07:15:16;1.13;;;1.10;;
36573;SDS011;22578;42.668;23.232;2022-08-14T07:18:37;0.90;;;0.90;;
36573;SDS011;22578;42.668;23.232;2022-08-14T07:21:58;0.98;;;0.98;;
36573;SDS011;22578;42.668;23.232;2022-08-14T07:25:19;0.90;;;0.90;;
36573;SDS011;22578;42.668;23.232;2022-08-14T07:28:40;0.80;;;0.80;;
36573;SDS011;22578;42.668;23.232;2022-08-14T07:32:00;1.27;;;1.20;;
36573;SDS011;22578;42.668;23.232;2022-08-14T07:35:21;1.50;;;1.40;;
36573;SDS011;22578;42.668;23.232;2022-08-14T07:38:42;0.80;;;0.80;;
36573;SDS011;22578;42.668;23.232;2022-08-14T07:42:03;1.60;;;1.50;;
36573;SDS011;22578;42.668;23.232;2022-08-14T07:45:23;1.27;;;1.17;;
36573;SDS011;22578;42.668;23.232;2022-08-14T07:48:43;1.38;;;1.27;;
36573;SDS011;22578;42.668;23.232;2022-08-14T07:52:04;0.80;;;0.80;;
36573;SDS011;22578;42.668;23.232;2022-08-14T07:55:26;1.17;;;1.17;;
36573;SDS011;22578;42.668;23.232;2022-08-14T07:58:47;1.40;;;1.30;;
36573;SDS011;22578;42.668;23.232;2022-08-14T08:02:07;0.90;;;0.90;;
36573;SDS011;22578;42.668;23.232;2022-08-14T08:05:29;1.30;;;1.20;;
36573;SDS011;22578;42.668;23.232;2022-08-14T08:08:50;1.10;;;1.10;;
36573;SDS011;22578;42.668;23.232;2022-08-14T08:12:12;0.95;;;0.95;;
36573;SDS011;22578;42.668;23.232;2022-08-14T08:15:35;0.90;;;0.90;;
36573;SDS011;22578;42.668;23.232;2022-08-14T08:18:57;1.08;;;1.08;;
36573;SDS011;22578;42.668;23.232;2022-08-14T08:22:18;0.80;;;0.80;;
36573;SDS011;22578;42.668;23.232;2022-08-14T08:25:40;1.05;;;1.05;;
36573;SDS011;22578;42.668;23.232;2022-08-14T08:29:02;1.00;;;1.00;;
36573;SDS011;22578;42.668;23.232;2022-08-14T08:32:23;1.13;;;1.13;;
36573;SDS011;22578;42.668;23.232;2022-08-14T08:35:46;0.82;;;0.82;;
36573;SDS011;22578;42.668;23.232;2022-08-14T08:39:07;1.05;;;1.05;;
36573;SDS011;22578;42.668;23.232;2022-08-14T08:42:28;0.88;;;0.88;;
36573;SDS011;22578;42.668;23.232;2022-08-14T08:45:57;0.95;;;0.95;;
36573;SDS011;22578;42.668;23.232;2022-08-14T08:49:21;1.42;;;1.35;;
36573;SDS011;22578;42.668;23.232;2022-08-14T08:52:48;0.73;;;0.73;;
36573;SDS011;22578;42.668;23.232;2022-08-14T08:56:09;0.88;;;0.88;;
36573;SDS011;22578;42.668;23.232;2022-08-14T08:59:30;0.90;;;0.90;;
36573;SDS011;22578;42.668;23.232;2022-08-14T09:02:51;2.30;;;1.38;;
36573;SDS011;22578;42.668;23.232;2022-08-14T09:06:22;2.47;;;0.90;;
36573;SDS011;22578;42.668;23.232;2022-08-14T09:09:42;0.90;;;0.90;;
36573;SDS011;22578;42.668;23.232;2022-08-14T09:13:12;1.00;;;1.00;;
36573;SDS011;22578;42.668;23.232;2022-08-14T09:16:34;0.98;;;0.98;;
36573;SDS011;22578;42.668;23.232;2022-08-14T09:19:54;0.80;;;0.80;;
36573;SDS011;22578;42.668;23.232;2022-08-14T09:23:16;1.50;;;1.02;;
36573;SDS011;22578;42.668;23.232;2022-08-14T09:26:37;0.95;;;0.95;;
36573;SDS011;22578;42.668;23.232;2022-08-14T09:29:58;1.13;;;1.08;;
36573;SDS011;22578;42.668;23.232;2022-08-14T09:33:21;1.00;;;1.00;;
36573;SDS011;22578;42.668;23.232;2022-08-14T09:44:08;1.02;;;1.02;;
36573;SDS011;22578;42.668;23.232;2022-08-14T09:47:52;0.80;;;0.80;;
36573;SDS011;22578;42.668;23.232;2022-08-14T09:51:21;0.80;;;0.80;;
36573;SDS011;22578;42.668;23.232;2022-08-14T09:54:45;1.10;;;1.10;;
36573;SDS011;22578;42.668;23.232;2022-08-14T09:58:08;0.85;;;0.85;;
36573;SDS011;22578;42.668;23.232;2022-08-14T10:01:35;1.38;;;1.27;;
36573;SDS011;22578;42.668;23.232;2022-08-14T10:08:20;1.15;;;1.15;;
36573;SDS011;22578;42.668;23.232;2022-08-14T10:11:41;1.02;;;1.02;;
36573;SDS011;22578;42.668;23.232;2022-08-14T10:15:14;1.05;;;1.05;;
36573;SDS011;22578;42.668;23.232;2022-08-14T10:18:36;0.90;;;0.90;;
36573;SDS011;22578;42.668;23.232;2022-08-14T10:25:16;1.08;;;1.08;;
36573;SDS011;22578;42.668;23.232;2022-08-14T10:28:39;0.77;;;0.77;;
36573;SDS011;22578;42.668;23.232;2022-08-14T10:32:02;0.80;;;0.80;;
36573;SDS011;22578;42.668;23.232;2022-08-14T10:35:23;1.00;;;1.00;;
36573;SDS011;22578;42.668;23.232;2022-08-14T10:38:43;0.80;;;0.80;;
36573;SDS011;22578;42.668;23.232;2022-08-14T10:45:32;1.10;;;1.08;;
36573;SDS011;22578;42.668;23.232;2022-08-14T10:48:57;1.85;;;1.45;;
36573;SDS011;22578;42.668;23.232;2022-08-14T10:52:29;1.13;;;1.13;;
36573;SDS011;22578;42.668;23.232;2022-08-14T10:55:56;0.70;;;0.70;;
36573;SDS011;22578;42.668;23.232;2022-08-14T10:59:17;1.08;;;1.08;;
36573;SDS011;22578;42.668;23.232;2022-08-14T11:02:38;0.80;;;0.80;;
36573;SDS011;22578;42.668;23.232;2022-08-14T11:05:58;1.00;;;1.00;;
36573;SDS011;22578;42.668;23.232;2022-08-14T11:09:20;1.05;;;1.05;;
36573;SDS011;22578;42.668;23.232;2022-08-14T11:12:45;0.95;;;0.95;;
36573;SDS011;22578;42.668;23.232;2022-08-14T11:16:07;1.17;;;1.13;;
36573;SDS011;22578;42.668;23.232;2022-08-14T11:19:27;0.90;;;0.90;;
36573;SDS011;22578;42.668;23.232;2022-08-14T11:22:52;1.27;;;1.20;;
36573;SDS011;22578;42.668;23.232;2022-08-14T11:26:17;0.95;;;0.95;;
36573;SDS011;22578;42.668;23.232;2022-08-14T11:29:38;0.65;;;0.65;;
36573;SDS011;22578;42.668;23.232;2022-08-14T11:32:59;0.80;;;0.80;;
36573;SDS011;22578;42.668;23.232;2022-08-14T11:36:21;1.23;;;1.13;;
36573;SDS011;22578;42.668;23.232;2022-08-14T11:39:42;0.80;;;0.80;;
36573;SDS011;22578;42.668;23.232;2022-08-14T11:43:04;0.85;;;0.85;;
36573;SDS011;22578;42.668;23.232;2022-08-14T11:46:25;0.90;;;0.90;;
36573;SDS011;22578;42.668;23.232;2022-08-14T11:49:47;1.23;;;1.13;;
36573;SDS011;22578;42.668;23.232;2022-08-14T11:53:17;0.88;;;0.88;;
36573;SDS011;22578;42.668;23.232;2022-08-14T11:56:42;0.88;;;0.88;;
36573;SDS011;22578;42.668;23.232;2022-08-14T12:00:06;0.90;;;0.90;;
36573;SDS011;22578;42.668;23.232;2022-08-14T12:03:37;0.80;;;0.80;;
36573;SDS011;22578;42.668;23.232;2022-08-14T12:07:01;0.70;;;0.70;;
36573;SDS011;22578;42.668;23.232;2022-08-14T12:10:26;0.90;;;0.90;;
36573;SDS011;22578;42.668;23.232;2022-08-14T12:13:48;0.75;;;0.75;;
36573;SDS011;22578;42.668;23.232;2022-08-14T12:17:10;0.80;;;0.80;;
36573;SDS011;22578;42.668;23.232;2022-08-14T12:20:33;0.70;;;0.70;;
36573;SDS011;22578;42.668;23.232;2022-08-14T12:24:01;1.13;;;1.13;;
36573;SDS011;22578;42.668;23.232;2022-08-14T12:27:35;0.98;;;0.98;;
36573;SDS011;22578;42.668;23.232;2022-08-14T12:31:10;1.30;;;1.23;;
36573;SDS011;22578;42.668;23.232;2022-08-14T12:34:34;0.88;;;0.88;;
36573;SDS011;22578;42.668;23.232;2022-08-14T12:37:56;0.90;;;0.90;;
36573;SDS011;22578;42.668;23.232;2022-08-14T12:41:20;0.90;;;0.90;;
36573;SDS011;22578;42.668;23.232;2022-08-14T12:44:42;1.02;;;1.02;;
36573;SDS011;22578;42.668;23.232;2022-08-14T12:48:03;1.88;;;1.60;;
36573;SDS011;22578;42.668;23.232;2022-08-14T12:51:25;1.20;;;1.10;;
36573;SDS011;22578;42.668;23.232;2022-08-14T12:54:55;0.90;;;0.90;;
36573;SDS011;22578;42.668;23.232;2022-08-14T12:58:26;1.10;;;1.10;;
36573;SDS011;22578;42.668;23.232;2022-08-14T13:01:54;0.90;;;0.90;;
36573;SDS011;22578;42.668;23.232;2022-08-14T13:05:16;0.80;;;0.80;;
36573;SDS011;22578;42.668;23.232;2022-08-14T13:08:41;1.13;;;1.02;;
36573;SDS011;22578;42.668;23.232;2022-08-14T13:12:04;0.95;;;0.95;;
36573;SDS011;22578;42.668;23.232;2022-08-14T13:15:25;1.02;;;1.00;;
36573;SDS011;22578;42.668;23.232;2022-08-14T13:18:46;0.82;;;0.82;;
36573;SDS011;22578;42.668;23.232;2022-08-14T13:22:06;0.90;;;0.90;;
36573;SDS011;22578;42.668;23.232;2022-08-14T13:25:27;0.80;;;0.80;;
36573;SDS011;22578;42.668;23.232;2022-08-14T13:28:48;1.00;;;1.00;;
36573;SDS011;22578;42.668;23.232;2022-08-14T13:32:10;0.80;;;0.80;;
36573;SDS011;22578;42.668;23.232;2022-08-14T13:35:32;0.80;;;0.80;;
36573;SDS011;22578;42.668;23.232;2022-08-14T13:38:52;0.80;;;0.80;;
36573;SDS011;22578;42.668;23.232;2022-08-14T13:42:13;2.15;;;1.27;;
36573;SDS011;22578;42.668;23.232;2022-08-14T13:45:33;1.85;;;1.40;;
36573;SDS011;22578;42.668;23.232;2022-08-14T13:48:54;0.95;;;0.95;;
36573;SDS011;22578;42.668;23.232;2022-08-14T13:52:16;0.93;;;0.90;;
36573;SDS011;22578;42.668;23.232;2022-08-14T13:55:39;0.80;;;0.80;;
36573;SDS011;22578;42.668;23.232;2022-08-14T13:59:00;0.90;;;0.90;;
36573;SDS011;22578;42.668;23.232;2022-08-14T14:02:21;1.00;;;1.00;;
36573;SDS011;22578;42.668;23.232;2022-08-14T14:05:41;1.05;;;1.05;;
36573;SDS011;22578;42.668;23.232;2022-08-14T14:09:02;1.50;;;1.17;;
36573;SDS011;22578;42.668;23.232;2022-08-14T14:12:25;1.27;;;1.20;;
36573;SDS011;22578;42.668;23.232;2022-08-14T14:15:45;1.85;;;1.50;;
36573;SDS011;22578;42.668;23.232;2022-08-14T14:19:07;1.02;;;1.02;;
36573;SDS011;22578;42.668;23.232;2022-08-14T14:22:28;1.08;;;1.02;;
36573;SDS011;22578;42.668;23.232;2022-08-14T14:25:48;0.80;;;0.80;;
36573;SDS011;22578;42.668;23.232;2022-08-14T14:29:10;1.10;;;1.00;;
36573;SDS011;22578;42.668;23.232;2022-08-14T14:32:33;0.82;;;0.82;;
36573;SDS011;22578;42.668;23.232;2022-08-14T14:35:57;1.35;;;1.25;;
36573;SDS011;22578;42.668;23.232;2022-08-14T14:39:19;0.90;;;0.90;;
36573;SDS011;22578;42.668;23.232;2022-08-14T14:42:46;1.42;;;1.33;;
36573;SDS011;22578;42.668;23.232;2022-08-14T14:46:09;1.92;;;1.52;;
36573;SDS011;22578;42.668;23.232;2022-08-14T14:49:31;0.85;;;0.85;;
36573;SDS011;22578;42.668;23.232;2022-08-14T14:52:51;1.40;;;1.30;;
36573;SDS011;22578;42.668;23.232;2022-08-14T14:56:13;1.10;;;1.10;;
36573;SDS011;22578;42.668;23.232;2022-08-14T14:59:33;1.02;;;1.02;;
36573;SDS011;22578;42.668;23.232;2022-08-14T15:02:54;1.50;;;1.25;;
36573;SDS011;22578;42.668;23.232;2022-08-14T15:06:16;1.27;;;1.20;;
36573;SDS011;22578;42.668;23.232;2022-08-14T15:09:37;1.13;;;1.13;;
36573;SDS011;22578;42.668;23.232;2022-08-14T15:12:58;0.80;;;0.80;;
36573;SDS011;22578;42.668;23.232;2022-08-14T15:16:19;0.75;;;0.75;;
36573;SDS011;22578;42.668;23.232;2022-08-14T15:19:40;0.80;;;0.80;;
36573;SDS011;22578;42.668;23.232;2022-08-14T15:23:01;1.10;;;1.10;;
36573;SDS011;22578;42.668;23.232;2022-08-14T15:26:22;0.88;;;0.88;;
36573;SDS011;22578;42.668;23.232;2022-08-14T15:29:43;0.70;;;0.70;;
36573;SDS011;22578;42.668;23.232;2022-08-14T15:33:04;0.93;;;0.93;;
36573;SDS011;22578;42.668;23.232;2022-08-14T15:36:25;0.90;;;0.90;;
36573;SDS011;22578;42.668;23.232;2022-08-14T15:39:47;1.00;;;1.00;;
36573;SDS011;22578;42.668;23.232;2022-08-14T15:43:08;1.00;;;1.00;;
36573;SDS011;22578;42.668;23.232;2022-08-14T15:46:30;1.10;;;1.10;;
36573;SDS011;22578;42.668;23.232;2022-08-14T15:49:52;1.05;;;1.05;;
36573;SDS011;22578;42.668;23.232;2022-08-14T15:53:13;1.00;;;1.00;;
36573;SDS011;22578;42.668;23.232;2022-08-14T15:56:33;0.90;;;0.90;;
36573;SDS011;22578;42.668;23.232;2022-08-14T15:59:54;1.13;;;1.10;;
36573;SDS011;22578;42.668;23.232;2022-08-14T16:03:33;0.80;;;0.80;;
36573;SDS011;22578;42.668;23.232;2022-08-14T16:06:54;0.80;;;0.80;;
36573;SDS011;22578;42.668;23.232;2022-08-14T16:10:15;1.23;;;1.20;;
36573;SDS011;22578;42.668;23.232;2022-08-14T16:13:37;0.90;;;0.90;;
36573;SDS011;22578;42.668;23.232;2022-08-14T16:17:02;0.80;;;0.80;;
36573;SDS011;22578;42.668;23.232;2022-08-14T16:20:27;1.20;;;1.10;;
36573;SDS011;22578;42.668;23.232;2022-08-14T16:23:48;1.30;;;1.00;;
36573;SDS011;22578;42.668;23.232;2022-08-14T16:27:10;0.90;;;0.90;;
36573;SDS011;22578;42.668;23.232;2022-08-14T16:30:30;0.90;;;0.90;;
36573;SDS011;22578;42.668;23.232;2022-08-14T16:33:51;1.20;;;1.15;;
36573;SDS011;22578;42.668;23.232;2022-08-14T16:37:12;0.80;;;0.80;;
36573;SDS011;22578;42.668;23.232;2022-08-14T16:40:35;0.85;;;0.85;;
36573;SDS011;22578;42.668;23.232;2022-08-14T16:43:57;1.02;;;1.02;;
36573;SDS011;22578;42.668;23.232;2022-08-14T16:47:21;0.75;;;0.75;;
36573;SDS011;22578;42.668;23.232;2022-08-14T16:50:41;0.88;;;0.88;;
36573;SDS011;22578;42.668;23.232;2022-08-14T16:54:03;0.90;;;0.90;;
36573;SDS011;22578;42.668;23.232;2022-08-14T16:57:25;0.70;;;0.70;;
36573;SDS011;22578;42.668;23.232;2022-08-14T17:00:46;0.70;;;0.70;;
36573;SDS011;22578;42.668;23.232;2022-08-14T17:04:10;0.90;;;0.90;;
36573;SDS011;22578;42.668;23.232;2022-08-14T17:07:32;1.23;;;1.17;;
36573;SDS011;22578;42.668;23.232;2022-08-14T17:14:16;2.47;;;1.23;;
36573;SDS011;22578;42.668;23.232;2022-08-14T17:21:14;1.00;;;1.00;;
36573;SDS011;22578;42.668;23.232;2022-08-14T17:24:57;1.20;;;1.20;;
36573;SDS011;22578;42.668;23.232;2022-08-14T17:28:19;0.95;;;0.95;;
36573;SDS011;22578;42.668;23.232;2022-08-14T17:31:41;1.38;;;1.27;;
36573;SDS011;22578;42.668;23.232;2022-08-14T17:35:03;1.42;;;1.33;;
36573;SDS011;22578;42.668;23.232;2022-08-14T17:38:26;1.02;;;1.02;;
36573;SDS011;22578;42.668;23.232;2022-08-14T17:41:48;1.20;;;1.10;;
36573;SDS011;22578;42.668;23.232;2022-08-14T17:45:10;1.17;;;1.17;;
36573;SDS011;22578;42.668;23.232;2022-08-14T17:48:31;1.00;;;1.00;;
36573;SDS011;22578;42.668;23.232;2022-08-14T17:52:08;1.55;;;1.05;;
36573;SDS011;22578;42.668;23.232;2022-08-14T17:55:30;1.48;;;1.38;;
36573;SDS011;22578;42.668;23.232;2022-08-14T17:58:52;0.85;;;0.85;;
36573;SDS011;22578;42.668;23.232;2022-08-14T18:02:13;1.17;;;1.15;;
36573;SDS011;22578;42.668;23.232;2022-08-14T18:05:34;0.82;;;0.82;;
36573;SDS011;22578;42.668;23.232;2022-08-14T18:08:56;1.00;;;1.00;;
36573;SDS011;22578;42.668;23.232;2022-08-14T18:12:17;1.35;;;1.27;;
36573;SDS011;22578;42.668;23.232;2022-08-14T18:15:39;0.90;;;0.90;;
36573;SDS011;22578;42.668;23.232;2022-08-14T18:19:01;1.08;;;1.08;;
36573;SDS011;22578;42.668;23.232;2022-08-14T18:22:23;1.20;;;1.20;;
36573;SDS011;22578;42.668;23.232;2022-08-14T18:25:46;1.20;;;1.20;;
36573;SDS011;22578;42.668;23.232;2022-08-14T18:29:08;0.90;;;0.90;;
36573;SDS011;22578;42.668;23.232;2022-08-14T18:35:52;1.30;;;1.30;;
36573;SDS011;22578;42.668;23.232;2022-08-14T18:39:19;0.90;;;0.90;;
36573;SDS011;22578;42.668;23.232;2022-08-14T18:42:54;0.82;;;0.82;;
36573;SDS011;22578;42.668;23.232;2022-08-14T18:46:16;1.15;;;1.05;;
36573;SDS011;22578;42.668;23.232;2022-08-14T18:53:23;1.05;;;1.05;;
36573;SDS011;22578;42.668;23.232;2022-08-14T18:56:54;1.27;;;1.17;;
36573;SDS011;22578;42.668;23.232;2022-08-14T19:03:45;0.70;;;0.70;;
36573;SDS011;22578;42.668;23.232;2022-08-14T19:07:15;1.33;;;1.23;;
36573;SDS011;22578;42.668;23.232;2022-08-14T19:10:37;0.88;;;0.88;;
36573;SDS011;22578;42.668;23.232;2022-08-14T19:13:58;0.80;;;0.80;;
36573;SDS011;22578;42.668;23.232;2022-08-14T19:20:59;0.98;;;0.98;;
36573;SDS011;22578;42.668;23.232;2022-08-14T19:24:23;0.95;;;0.95;;
36573;SDS011;22578;42.668;23.232;2022-08-14T19:28:21;1.00;;;1.00;;
36573;SDS011;22578;42.668;23.232;2022-08-14T19:31:41;2.13;;;1.70;;
36573;SDS011;22578;42.668;23.232;2022-08-14T19:35:02;2.85;;;1.90;;
36573;SDS011;22578;42.668;23.232;2022-08-14T19:42:19;0.90;;;0.90;;
36573;SDS011;22578;42.668;23.232;2022-08-14T19:45:46;0.85;;;0.85;;
36573;SDS011;22578;42.668;23.232;2022-08-14T19:49:14;0.70;;;0.70;;
36573;SDS011;22578;42.668;23.232;2022-08-14T19:52:34;1.30;;;1.25;;
36573;SDS011;22578;42.668;23.232;2022-08-14T19:56:01;0.80;;;0.80;;
36573;SDS011;22578;42.668;23.232;2022-08-14T19:59:22;1.02;;;1.02;;
36573;SDS011;22578;42.668;23.232;2022-08-14T20:02:43;0.90;;;0.90;;
36573;SDS011;22578;42.668;23.232;2022-08-14T20:06:10;0.85;;;0.85;;
36573;SDS011;22578;42.668;23.232;2022-08-14T20:09:38;0.90;;;0.90;;
36573;SDS011;22578;42.668;23.232;2022-08-14T20:13:00;1.00;;;1.00;;
36573;SDS011;22578;42.668;23.232;2022-08-14T20:16:27;1.00;;;1.00;;
36573;SDS011;22578;42.668;23.232;2022-08-14T20:19:49;1.00;;;1.00;;
36573;SDS011;22578;42.668;23.232;2022-08-14T20:23:10;0.80;;;0.80;;
36573;SDS011;22578;42.668;23.232;2022-08-14T20:26:32;1.42;;;1.10;;
36573;SDS011;22578;42.668;23.232;2022-08-14T20:30:00;1.25;;;1.25;;
36573;SDS011;22578;42.668;23.232;2022-08-14T20:33:33;1.00;;;1.00;;
36573;SDS011;22578;42.668;23.232;2022-08-14T20:37:06;1.08;;;1.08;;
36573;SDS011;22578;42.668;23.232;2022-08-14T20:40:32;0.85;;;0.85;;
36573;SDS011;22578;42.668;23.232;2022-08-14T20:43:55;0.80;;;0.80;;
36573;SDS011;22578;42.668;23.232;2022-08-14T20:47:42;1.40;;;1.30;;